Time;durP1;ratioP1;P1;durP2;ratioP2;P2;SDS_P1;SDS_P2;PMS_P1;PMS_P2;Temp;Humidity;BMP_temperature;BMP_pressure;BME280_temperature;BME280_humidity;BME280_pressure;Samples;Min_cycle;Max_cycle;Signal;HPM_P1;HPM_P2
2023/07/27 00:02:11;;;;;;;4.75;3.85;;;;;;;15.07;100.00;100129.56;5082000;28;20082;-75
2023/07/27 00:04:40;;;;;;;8.15;4.13;;;;;;;15.02;100.00;100129.03;5070070;28;20044;-74
2023/07/27 00:07:08;;;;;;;6.63;3.97;;;;;;;14.87;100.00;100113.25;5065353;28;20049;-76
2023/07/27 00:09:36;;;;;;;6.80;4.35;;;;;;;14.88;100.00;100146.94;5066914;28;20064;-76
2023/07/27 00:12:05;;;;;;;6.00;4.63;;;;;;;14.79;100.00;100132.44;5071962;28;20048;-76
2023/07/27 00:14:32;;;;;;;6.45;4.32;;;;;;;14.74;100.00;100140.75;5059928;28;20140;-76
2023/07/27 00:17:03;;;;;;;6.93;4.97;;;;;;;14.70;100.00;100143.72;5066097;28;20040;-76
2023/07/27 00:19:31;;;;;;;6.72;5.00;;;;;;;14.63;100.00;100127.31;5065855;28;20041;-75
2023/07/27 00:22:00;;;;;;;7.80;4.85;;;;;;;14.57;100.00;100126.84;5070073;28;20056;-76
2023/07/27 00:24:29;;;;;;;6.53;4.53;;;;;;;14.62;100.00;100132.75;5062329;28;20191;-76
2023/07/27 00:26:57;;;;;;;6.15;4.93;;;;;;;14.54;100.00;100121.72;5058550;28;20069;-77
2023/07/27 00:29:25;;;;;;;7.30;4.97;;;;;;;14.57;100.00;100126.84;5079985;28;20048;-76
2023/07/27 00:31:53;;;;;;;7.50;4.70;;;;;;;14.53;100.00;100126.22;5052917;28;20045;-76
2023/07/27 00:34:24;;;;;;;8.13;5.00;;;;;;;14.55;100.00;100123.44;5056975;28;20080;-76
2023/07/27 00:36:53;;;;;;;6.00;4.40;;;;;;;14.58;100.00;100120.56;5043043;28;20333;-77
2023/07/27 00:39:21;;;;;;;6.65;4.80;;;;;;;14.59;100.00;100120.47;5083551;28;20513;-75
2023/07/27 00:41:49;;;;;;;6.75;4.88;;;;;;;14.59;100.00;100119.63;5067214;28;20111;-75
2023/07/27 00:44:17;;;;;;;8.85;4.63;;;;;;;14.62;100.00;100112.28;5067687;28;20119;-76
2023/07/27 00:46:45;;;;;;;6.15;4.50;;;;;;;14.69;100.00;100115.34;5062472;28;20045;-77
2023/07/27 00:49:13;;;;;;;7.00;4.80;;;;;;;14.66;100.00;100118.22;5079190;28;20592;-77
2023/07/27 00:51:45;;;;;;;11.30;5.50;;;;;;;14.61;100.00;100112.38;5053794;28;20041;-76
2023/07/27 00:54:16;;;;;;;7.72;5.47;;;;;;;14.52;100.00;100097.00;5088711;28;20523;-76
2023/07/27 00:56:45;;;;;;;8.45;5.05;;;;;;;14.61;100.00;100099.06;5062080;28;20040;-77
2023/07/27 00:59:16;;;;;;;7.65;4.82;;;;;;;14.49;100.00;100082.06;5065276;28;20040;-77
2023/07/27 01:01:44;;;;;;;;;;;;;;;14.60;100.00;100095.53;5053192;28;20476;-76
2023/07/27 01:04:12;;;;;;;8.43;5.57;;;;;;;14.60;100.00;100084.03;5083048;28;19920;-77
2023/07/27 01:06:41;;;;;;;6.80;4.68;;;;;;;14.58;100.00;100085.94;5061847;28;20033;-77
2023/07/27 01:09:10;;;;;;;6.55;4.65;;;;;;;14.54;100.00;100068.44;5092406;28;20508;-75
2023/07/27 01:11:47;;;;;;;7.55;4.63;;;;;;;14.61;100.00;100077.72;5063990;28;20712;-75
2023/07/27 01:14:24;;;;;;;8.45;5.30;;;;;;;14.61;100.00;100070.59;5072250;28;20102;-76
2023/07/27 01:16:58;;;;;;;5.32;4.55;;;;;;;14.58;100.00;100056.63;5051757;28;20074;-75
2023/07/27 01:19:59;;;;;;;6.60;5.20;;;;;;;14.63;100.00;100062.50;5063882;28;20041;-75
2023/07/27 01:22:43;;;;;;;7.35;5.00;;;;;;;14.64;100.00;100065.03;5050361;28;20056;-76
2023/07/27 01:25:31;;;;;;;10.98;5.13;;;;;;;14.65;100.00;100060.56;5076447;28;20040;-76
2023/07/27 01:28:14;;;;;;;6.90;5.20;;;;;;;14.73;100.00;100050.22;5065600;28;20090;-75
2023/07/27 01:30:57;;;;;;;5.72;4.57;;;;;;;14.73;100.00;100047.56;5082905;28;20036;-76
2023/07/27 01:33:31;;;;;;;6.40;5.10;;;;;;;14.72;100.00;100045.84;5095721;28;20049;-75
2023/07/27 01:36:06;;;;;;;7.60;5.30;;;;;;;14.78;100.00;100044.59;5066098;28;20041;-76
2023/07/27 01:38:37;;;;;;;9.40;5.38;;;;;;;14.84;100.00;100036.13;5075319;28;20045;-75
2023/07/27 01:41:10;;;;;;;9.00;5.05;;;;;;;14.90;100.00;100030.41;5087326;28;20060;-75
2023/07/27 01:43:42;;;;;;;5.88;4.28;;;;;;;14.93;100.00;100011.53;5080879;28;20045;-75
2023/07/27 01:46:13;;;;;;;6.88;4.65;;;;;;;14.96;100.00;100020.13;5075638;28;20048;-77
2023/07/27 01:48:43;;;;;;;8.30;4.78;;;;;;;14.95;100.00;100007.75;5059029;28;20048;-75
2023/07/27 01:51:14;;;;;;;9.23;5.00;;;;;;;14.95;100.00;100015.75;5066759;28;20476;-75
2023/07/27 01:53:45;;;;;;;10.70;5.10;;;;;;;14.93;100.00;100016.84;5073225;28;20058;-75
2023/07/27 01:56:15;;;;;;;5.97;4.70;;;;;;;14.92;100.00;100009.81;5087047;28;20045;-76
2023/07/27 01:58:44;;;;;;;7.00;4.93;;;;;;;14.98;100.00;100015.53;5045245;28;20797;-74
2023/07/27 02:01:14;;;;;;;7.53;4.70;;;;;;;14.92;100.00;99988.47;5081108;28;20041;-75
2023/07/27 02:03:43;;;;;;;6.70;4.72;;;;;;;15.09;100.00;100013.00;5069700;28;20047;-74
2023/07/27 02:06:13;;;;;;;8.27;5.65;;;;;;;15.06;100.00;100007.88;5064670;28;20040;-75
2023/07/27 02:08:41;;;;;;;7.00;4.90;;;;;;;15.04;100.00;100001.78;5040506;28;20420;-75
2023/07/27 02:11:17;;;;;;;;;;;;;;;15.07;100.00;99998.91;5050068;28;20045;-75
2023/07/27 02:13:49;;;;;;;6.95;5.03;;;;;;;15.09;100.00;99991.66;5068960;28;19932;-74
2023/07/27 02:16:37;;;;;;;6.82;4.68;;;;;;;15.11;100.00;99998.69;5054185;28;20724;-75
2023/07/27 02:19:07;;;;;;;6.85;4.45;;;;;;;15.11;100.00;99990.69;5057357;28;20049;-74
2023/07/27 02:21:36;;;;;;;8.73;5.20;;;;;;;15.00;100.00;99978.09;5075412;28;20063;-75
2023/07/27 02:24:06;;;;;;;8.07;5.47;;;;;;;14.91;100.00;99982.31;5074394;28;20044;-75
2023/07/27 02:26:36;;;;;;;9.13;5.10;;;;;;;14.77;100.00;99966.44;5093492;28;20045;-74
2023/07/27 02:29:04;;;;;;;11.23;5.23;;;;;;;14.81;100.00;99997.22;5032677;28;20389;-74
2023/07/27 02:31:33;;;;;;;7.45;5.20;;;;;;;14.73;100.00;99987.13;5071708;28;20454;-74
2023/07/27 02:34:01;;;;;;;7.53;5.10;;;;;;;14.71;100.00;99989.03;5057366;28;20044;-74
2023/07/27 02:36:31;;;;;;;8.65;5.20;;;;;;;14.66;100.00;99984.97;5070990;28;20044;-74
2023/07/27 02:39:02;;;;;;;9.85;5.82;;;;;;;14.61;100.00;99979.13;5077646;28;20064;-74
2023/07/27 02:41:30;;;;;;;7.82;5.85;;;;;;;14.59;100.00;99983.72;5072945;28;20056;-73
2023/07/27 02:43:59;;;;;;;10.00;5.53;;;;;;;14.55;100.00;99977.75;5057534;28;20524;-74
2023/07/27 02:46:28;;;;;;;7.00;4.85;;;;;;;14.56;100.00;99986.59;5060331;28;20386;-74
2023/07/27 02:48:58;;;;;;;6.28;5.07;;;;;;;14.57;100.00;99990.97;5080523;28;20076;-74
2023/07/27 02:51:26;;;;;;;8.60;4.90;;;;;;;14.58;100.00;99980.19;5075740;28;20060;-74
2023/07/27 02:53:58;;;;;;;9.75;5.50;;;;;;;14.59;100.00;99970.41;5070299;28;20139;-73
2023/07/27 02:56:30;;;;;;;8.13;5.13;;;;;;;14.63;100.00;99987.88;5082892;28;21239;-73
2023/07/27 02:59:00;;;;;;;9.27;5.63;;;;;;;14.61;100.00;99974.66;5064221;28;20047;-74
2023/07/27 03:01:30;;;;;;;6.57;4.65;;;;;;;14.58;100.00;99974.03;5075998;28;20055;-73
2023/07/27 03:04:05;;;;;;;7.53;4.93;;;;;;;14.56;100.00;99971.47;5050264;28;20094;-73
2023/07/27 03:06:33;;;;;;;9.32;5.38;;;;;;;14.58;100.00;99980.19;5071483;28;20040;-74
2023/07/27 03:09:04;;;;;;;7.60;5.60;;;;;;;14.57;100.00;99975.84;5057627;28;20142;-73
2023/07/27 03:11:33;;;;;;;8.30;5.30;;;;;;;14.58;100.00;99974.03;5073466;28;20086;-73
2023/07/27 03:14:01;;;;;;;7.10;5.32;;;;;;;14.58;100.00;99974.03;5089061;28;20060;-73
2023/07/27 03:16:30;;;;;;;7.63;5.45;;;;;;;14.59;100.00;99971.25;5054017;28;20052;-73
2023/07/27 03:18:59;;;;;;;11.57;5.72;;;;;;;14.56;100.00;99971.47;5061405;28;20056;-73
2023/07/27 03:21:32;;;;;;;8.95;5.15;;;;;;;14.57;100.00;99972.31;5076081;28;20057;-73
2023/07/27 03:23:59;;;;;;;6.80;5.20;;;;;;;14.56;100.00;99967.94;5079778;28;20040;-73
2023/07/27 03:26:28;;;;;;;8.65;5.63;;;;;;;14.58;100.00;99971.34;5071259;28;20521;-72
2023/07/27 03:28:55;;;;;;;7.88;4.90;;;;;;;14.55;100.00;99969.75;5068768;28;20057;-73
2023/07/27 03:31:25;;;;;;;6.97;5.15;;;;;;;14.56;100.00;99960.81;5069990;28;20045;-74
2023/07/27 03:33:54;;;;;;;8.38;5.47;;;;;;;14.55;100.00;99966.22;5067235;28;20449;-73
2023/07/27 03:36:24;;;;;;;8.93;5.30;;;;;;;14.54;100.00;99959.19;5038870;28;20052;-73
2023/07/27 03:38:54;;;;;;;7.82;5.15;;;;;;;14.56;100.00;99965.28;5064475;28;20458;-73
2023/07/27 03:41:22;;;;;;;10.65;5.25;;;;;;;14.54;100.00;99954.72;5071002;28;20060;-73
2023/07/27 03:43:51;;;;;;;6.75;4.85;;;;;;;14.52;100.00;99948.66;5061063;28;20123;-73
2023/07/27 03:46:19;;;;;;;8.32;5.30;;;;;;;14.53;100.00;99949.50;5066650;28;20052;-74
2023/07/27 03:48:48;;;;;;;7.38;5.13;;;;;;;14.58;100.00;99956.22;5067429;28;20397;-74
2023/07/27 03:51:18;;;;;;;8.15;5.43;;;;;;;14.61;100.00;99948.00;5068095;28;20500;-74
2023/07/27 03:53:45;;;;;;;6.68;5.07;;;;;;;14.59;100.00;99930.44;5055556;28;20130;-75
2023/07/27 03:56:32;;;;;;;7.75;5.00;;;;;;;14.68;100.00;99940.41;5072008;28;20431;-73
2023/07/27 03:59:00;;;;;;;7.45;5.20;;;;;;;14.70;100.00;99930.50;5050917;28;20101;-73
2023/07/27 04:01:30;;;;;;;7.78;4.95;;;;;;;14.74;100.00;99942.66;5069104;28;20130;-73
2023/07/27 04:03:58;;;;;;;10.10;4.88;;;;;;;14.81;100.00;99938.56;5080762;28;20132;-74
2023/07/27 04:06:27;;;;;;;9.93;5.28;;;;;;;14.87;100.00;99932.81;5065762;28;20048;-74
2023/07/27 04:08:55;;;;;;;7.20;5.13;;;;;;;14.85;100.00;99926.75;5043303;28;20054;-73
2023/07/27 04:11:23;;;;;;;8.75;5.50;;;;;;;14.82;100.00;99910.97;5087968;28;20047;-73
2023/07/27 04:13:52;;;;;;;7.65;5.22;;;;;;;14.93;100.00;99926.22;5056101;28;20386;-73
2023/07/27 04:16:20;;;;;;;8.57;5.25;;;;;;;14.95;100.00;99929.63;5069475;28;20935;-73
2023/07/27 04:18:50;;;;;;;10.30;5.60;;;;;;;14.94;100.00;99923.44;5064384;28;20067;-74
2023/07/27 04:21:20;;;;;;;6.72;5.00;;;;;;;14.87;100.00;99908.81;5068706;28;20049;-73
2023/07/27 04:23:48;;;;;;;8.07;5.20;;;;;;;15.03;100.00;99919.22;5066383;28;20132;-73
2023/07/27 04:26:16;;;;;;;13.93;5.60;;;;;;;15.03;100.00;99917.41;5079769;28;20052;-72
2023/07/27 04:28:44;;;;;;;9.02;5.95;;;;;;;15.00;100.00;99916.78;5064174;28;22132;-73
2023/07/27 04:31:13;;;;;;;7.75;5.45;;;;;;;14.98;100.00;99916.88;5043792;28;20556;-74
2023/07/27 04:33:42;;;;;;;8.82;5.60;;;;;;;14.95;100.00;99914.44;5072128;28;20041;-73
2023/07/27 04:36:10;;;;;;;10.63;6.43;;;;;;;14.92;100.00;99913.84;5054526;28;20068;-74
2023/07/27 04:38:38;;;;;;;9.38;6.00;;;;;;;14.92;100.00;99909.34;5063575;28;20036;-73
2023/07/27 04:41:06;;;;;;;7.63;6.30;;;;;;;14.89;100.00;99914.91;5051250;28;20044;-72
2023/07/27 04:43:34;;;;;;;12.23;6.47;;;;;;;14.90;100.00;99913.09;5070742;28;20126;-72
2023/07/27 04:46:03;;;;;;;9.32;6.43;;;;;;;14.92;100.00;99920.03;5070059;28;20045;-73
2023/07/27 04:48:33;;;;;;;9.57;6.32;;;;;;;14.89;100.00;99922.91;5075967;28;20063;-72
2023/07/27 04:51:01;;;;;;;10.25;7.03;;;;;;;14.84;100.00;99917.03;5073905;28;20052;-73
2023/07/27 04:53:29;;;;;;;9.88;6.93;;;;;;;14.80;100.00;99926.22;5080284;28;20067;-72
2023/07/27 04:56:05;;;;;;;8.18;6.45;;;;;;;14.79;100.00;99921.88;5086948;28;20420;-73
2023/07/27 04:58:34;;;;;;;10.45;6.15;;;;;;;14.81;100.00;99921.72;5066581;28;20484;-72
2023/07/27 05:01:04;;;;;;;9.68;6.75;;;;;;;14.73;100.00;99908.97;5063198;28;20135;-72
2023/07/27 05:03:33;;;;;;;9.52;6.93;;;;;;;14.81;100.00;99919.91;5068842;28;20465;-73
2023/07/27 05:06:02;;;;;;;8.68;5.97;;;;;;;14.77;100.00;99915.78;5071146;28;20041;-72
2023/07/27 05:08:30;;;;;;;9.18;6.60;;;;;;;14.73;100.00;99900.97;5079827;28;20068;-72
2023/07/27 05:10:59;;;;;;;13.40;7.10;;;;;;;14.88;100.00;99918.53;5077728;28;20044;-73
2023/07/27 05:13:27;;;;;;;9.98;6.72;;;;;;;14.90;100.00;99900.63;5053948;28;20079;-73
2023/07/27 05:15:55;;;;;;;12.05;6.63;;;;;;;14.99;100.00;99891.06;5049607;28;20284;-73
2023/07/27 05:18:23;;;;;;;9.88;6.53;;;;;;;15.05;100.00;99880.84;5066927;28;20032;-72
2023/07/27 05:20:53;;;;;;;7.63;6.25;;;;;;;15.16;100.00;99889.84;5061877;28;20507;-73
2023/07/27 05:23:20;;;;;;;7.20;5.72;;;;;;;15.17;100.00;99894.22;5085356;28;20051;-73
2023/07/27 05:25:49;;;;;;;10.75;6.13;;;;;;;15.23;100.00;99899.09;5067127;28;20043;-75
2023/07/27 05:28:17;;;;;;;15.40;6.95;;;;;;;15.22;100.00;99884.06;5035326;28;20079;-74
2023/07/27 05:30:46;;;;;;;11.70;6.63;;;;;;;15.25;100.00;99889.19;5044462;28;20048;-73
2023/07/27 05:33:15;;;;;;;10.88;6.05;;;;;;;15.23;100.00;99880.44;5066201;28;20098;-74
2023/07/27 05:35:48;;;;;;;10.52;6.25;;;;;;;15.24;100.00;99890.16;5070858;28;20045;-74
2023/07/27 05:38:18;;;;;;;8.98;5.93;;;;;;;15.24;100.00;99893.66;5084434;28;20055;-74
2023/07/27 05:40:46;;;;;;;10.77;6.47;;;;;;;15.24;100.00;99882.13;5058330;28;20041;-73
2023/07/27 05:43:14;;;;;;;9.55;6.30;;;;;;;15.24;100.00;99882.13;5070736;28;20036;-74
2023/07/27 05:45:41;;;;;;;9.48;6.30;;;;;;;15.37;100.00;99883.78;5068180;28;20036;-77
2023/07/27 05:48:10;;;;;;;11.00;6.28;;;;;;;15.40;100.00;99877.38;5051568;28;20049;-73
2023/07/27 05:50:38;;;;;;;7.93;6.13;;;;;;;15.42;100.00;99875.44;5060205;28;20072;-75
2023/07/27 05:53:06;;;;;;;11.15;6.13;;;;;;;15.44;100.00;99874.31;5071744;28;20047;-73
2023/07/27 05:55:36;;;;;;;9.48;6.47;;;;;;;15.48;100.00;99874.09;5066876;28;20048;-75
2023/07/27 05:58:04;;;;;;;6.88;5.63;;;;;;;15.46;100.00;99868.88;5048636;28;20051;-74
2023/07/27 06:00:51;;;;;;;8.70;6.03;;;;;;;15.39;100.00;99856.97;5062325;28;20045;-73
2023/07/27 06:03:20;;;;;;;9.25;6.60;;;;;;;15.35;100.00;99863.50;5072934;28;20108;-75
2023/07/27 06:05:48;;;;;;;7.47;6.35;;;;;;;15.34;100.00;99867.13;5086983;28;20102;-74
2023/07/27 06:08:17;;;;;;;10.13;6.50;;;;;;;15.38;100.00;99865.94;5063605;28;20052;-76
2023/07/27 06:10:48;;;;;;;13.88;7.18;;;;;;;15.44;100.00;99855.66;5077402;28;20044;-75
2023/07/27 06:13:16;;;;;;;9.48;6.25;;;;;;;15.65;100.00;99861.22;5069459;28;20053;-76
2023/07/27 06:15:47;;;;;;;7.93;5.60;;;;;;;15.77;100.00;99851.41;5072068;28;20071;-74
2023/07/27 06:18:16;;;;;;;9.60;6.03;;;;;;;15.90;100.00;99854.00;5066339;28;20044;-76
2023/07/27 06:20:44;;;;;;;9.15;5.22;;;;;;;15.98;100.00;99860.44;5025445;28;20052;-75
2023/07/27 06:23:12;;;;;;;9.55;5.13;;;;;;;16.02;100.00;99858.38;5069017;28;20055;-76
2023/07/27 06:25:42;;;;;;;7.45;4.82;;;;;;;16.07;100.00;99858.88;5028273;28;20045;-75
2023/07/27 06:28:14;;;;;;;16.15;5.78;;;;;;;16.11;100.00;99855.84;5067304;28;20052;-75
2023/07/27 06:30:44;;;;;;;8.48;5.63;;;;;;;16.06;100.00;99833.13;5062003;28;20044;-75
2023/07/27 06:33:14;;;;;;;7.43;5.20;;;;;;;16.23;100.00;99850.50;5069311;28;20045;-76
2023/07/27 06:35:42;;;;;;;12.20;5.43;;;;;;;16.21;100.00;99847.13;5053534;28;20104;-75
2023/07/27 06:38:10;;;;;;;7.95;5.18;;;;;;;16.25;100.00;99851.22;5067114;28;20559;-75
2023/07/27 06:40:40;;;;;;;8.80;4.80;;;;;;;16.25;100.00;99848.56;5064464;28;20581;-75
2023/07/27 06:43:08;;;;;;;6.90;5.40;;;;;;;16.22;100.00;99849.66;5076888;28;20036;-75
2023/07/27 06:45:37;;;;;;;9.43;6.25;;;;;;;16.24;100.00;99850.38;5081659;28;20136;-76
2023/07/27 06:48:05;;;;;;;8.45;5.68;;;;;;;16.19;100.00;99841.91;5090104;28;20052;-76
2023/07/27 06:50:33;;;;;;;8.48;5.38;;;;;;;16.20;100.00;99840.94;5062406;28;20045;-76
2023/07/27 06:53:01;;;;;;;7.03;5.07;;;;;;;16.23;100.00;99846.00;5041873;28;20041;-75
2023/07/27 06:55:31;;;;;;;7.95;5.38;;;;;;;16.27;100.00;99841.28;5078384;28;20060;-76
2023/07/27 06:58:01;;;;;;;8.38;5.40;;;;;;;16.34;100.00;99847.84;5075412;28;20055;-75
2023/07/27 07:00:29;;;;;;;7.45;5.65;;;;;;;16.32;100.00;99850.63;5063270;28;20048;-76
2023/07/27 07:02:58;;;;;;;10.95;5.18;;;;;;;16.30;100.00;99851.72;5071524;28;20105;-74
2023/07/27 07:05:26;;;;;;;7.50;5.35;;;;;;;16.28;100.00;99841.16;5071580;28;20080;-75
2023/07/27 07:07:54;;;;;;;8.48;5.38;;;;;;;16.24;100.00;99831.69;5066621;28;20041;-74
2023/07/27 07:10:22;;;;;;;7.30;5.15;;;;;;;16.15;100.00;99829.75;5066652;28;20416;-75
2023/07/27 07:12:51;;;;;;;6.93;4.93;;;;;;;16.11;100.00;99828.28;5076266;28;20044;-75
2023/07/27 07:15:19;;;;;;;10.02;5.68;;;;;;;16.13;100.00;99824.53;5074172;28;20090;-75
2023/07/27 07:17:47;;;;;;;8.35;5.15;;;;;;;16.22;100.00;99820.25;5074683;28;20056;-75
2023/07/27 07:20:18;;;;;;;6.38;4.85;;;;;;;16.25;100.00;99811.16;5062192;28;20087;-77
2023/07/27 07:22:46;;;;;;;10.48;5.00;;;;;;;16.20;100.00;99816.88;5081470;28;20064;-75
2023/07/27 07:25:14;;;;;;;7.82;5.20;;;;;;;16.19;100.00;99812.50;5065237;28;20083;-76
2023/07/27 07:27:42;;;;;;;10.02;6.85;;;;;;;16.12;100.00;99796.09;5073252;28;20059;-75
2023/07/27 07:30:13;;;;;;;7.22;5.60;;;;;;;16.18;100.00;99808.13;5052554;28;20037;-75
2023/07/27 07:32:41;;;;;;;7.22;5.13;;;;;;;16.22;100.00;99808.72;5072844;28;20529;-78
2023/07/27 07:35:09;;;;;;;7.35;6.05;;;;;;;16.19;100.00;99812.50;5079816;28;20425;-75
2023/07/27 07:37:41;;;;;;;;;;;;;;;16.16;100.00;99818.09;5074909;28;20047;-75
2023/07/27 07:40:10;;;;;;;7.35;4.90;;;;;;;16.01;100.00;99821.97;5048686;28;19928;-76
2023/07/27 07:42:40;;;;;;;11.27;6.20;;;;;;;15.86;100.00;99817.81;5033521;28;20597;-76
2023/07/27 07:45:09;;;;;;;9.65;5.70;;;;;;;15.84;100.00;99809.94;5075446;28;20504;-75
2023/07/27 07:47:37;;;;;;;10.95;6.43;;;;;;;15.78;100.00;99811.25;5086762;28;20077;-76
2023/07/27 07:50:06;;;;;;;10.25;6.70;;;;;;;15.76;100.00;99810.50;5068027;28;20047;-73
2023/07/27 07:52:35;;;;;;;9.55;6.70;;;;;;;15.78;100.00;99805.91;5064815;28;20055;-74
2023/07/27 07:55:06;;;;;;;9.13;5.97;;;;;;;15.78;100.00;99805.06;5069342;28;20049;-75
2023/07/27 07:57:37;;;;;;;8.30;5.72;;;;;;;15.68;100.00;99794.25;5074123;28;20492;-74
2023/07/27 08:00:09;;;;;;;8.60;5.63;;;;;;;15.63;100.00;99790.25;5071980;28;20413;-73
2023/07/27 08:02:43;;;;;;;6.90;5.38;;;;;;;15.28;100.00;99756.41;5069990;28;20049;-74
2023/07/27 08:05:11;;;;;;;6.35;5.28;;;;;;;15.41;100.00;99780.34;5072473;28;20155;-73
2023/07/27 08:07:39;;;;;;;6.90;5.07;;;;;;;15.43;100.00;99775.72;5072688;28;20396;-74
2023/07/27 08:10:09;;;;;;;8.10;5.22;;;;;;;15.49;100.00;99777.94;5069845;28;20465;-74
2023/07/27 08:12:40;;;;;;;7.45;5.35;;;;;;;15.44;100.00;99761.41;5067943;28;20044;-75
2023/07/27 08:15:09;;;;;;;6.38;4.88;;;;;;;15.52;100.00;99774.19;5096427;28;20063;-74
2023/07/27 08:17:39;;;;;;;8.88;5.82;;;;;;;15.37;100.00;99750.38;5074712;28;20052;-75
2023/07/27 08:20:09;;;;;;;7.72;5.65;;;;;;;15.47;100.00;99771.84;5067799;28;20033;-73
2023/07/27 08:22:38;;;;;;;9.68;5.93;;;;;;;15.50;100.00;99762.78;5035114;28;20067;-75
2023/07/27 08:25:09;;;;;;;8.43;5.85;;;;;;;15.59;100.00;99740.72;5068610;28;20040;-73
2023/07/27 08:27:51;;;;;;;9.95;6.30;;;;;;;15.69;100.00;99744.41;5073169;28;20488;-74
2023/07/27 08:30:21;;;;;;;9.30;6.28;;;;;;;15.66;100.00;99745.47;5084494;28;20131;-75
2023/07/27 08:32:49;;;;;;;9.38;6.28;;;;;;;15.67;100.00;99725.84;5063889;28;20072;-74
2023/07/27 08:35:18;;;;;;;8.80;6.32;;;;;;;15.58;100.00;99731.06;5078331;28;20048;-73
2023/07/27 08:37:49;;;;;;;10.32;6.43;;;;;;;15.60;100.00;99739.75;5069989;28;20053;-75
2023/07/27 08:40:19;;;;;;;6.47;5.60;;;;;;;15.52;100.00;99727.00;5072462;28;20033;-75
2023/07/27 08:42:47;;;;;;;10.77;6.53;;;;;;;15.21;100.00;99672.50;5064074;28;20485;-75
2023/07/27 08:45:15;;;;;;;9.88;6.30;;;;;;;15.30;100.00;99690.47;5074323;28;20052;-74
2023/07/27 08:47:45;;;;;;;9.57;6.10;;;;;;;15.51;100.00;99727.97;5074641;28;20047;-75
2023/07/27 08:50:15;;;;;;;10.68;5.70;;;;;;;15.49;100.00;99721.91;5064597;28;20037;-74
2023/07/27 08:52:44;;;;;;;8.98;6.75;;;;;;;15.46;100.00;99722.13;5062640;28;20090;-74
2023/07/27 08:55:12;;;;;;;8.05;5.50;;;;;;;15.49;100.00;99724.56;5073387;28;20039;-74
2023/07/27 08:57:44;;;;;;;8.23;6.10;;;;;;;15.41;100.00;99714.50;5069675;28;20558;-74
2023/07/27 09:00:14;;;;;;;8.73;6.50;;;;;;;15.45;100.00;99715.94;5070483;28;20033;-74
2023/07/27 09:02:42;;;;;;;8.32;6.05;;;;;;;15.44;100.00;99708.91;5059234;28;20041;-74
2023/07/27 09:05:11;;;;;;;7.63;5.72;;;;;;;15.29;100.00;99694.09;5072475;28;20082;-74
2023/07/27 09:07:39;;;;;;;8.20;6.03;;;;;;;15.29;100.00;99699.41;5054301;28;20048;-74
2023/07/27 09:10:10;;;;;;;10.32;6.22;;;;;;;15.31;100.00;99717.97;5066239;28;20566;-74
2023/07/27 09:12:41;;;;;;;11.30;6.80;;;;;;;15.37;100.00;99723.69;5063198;28;20084;-74
2023/07/27 09:15:14;;;;;;;7.43;5.90;;;;;;;15.40;100.00;99718.13;5066581;28;20044;-72
2023/07/27 09:17:42;;;;;;;8.52;5.40;;;;;;;15.47;100.00;99731.84;5073108;28;20637;-72
2023/07/27 09:20:14;;;;;;;8.38;6.07;;;;;;;15.42;100.00;99718.84;5073318;28;20738;-74
2023/07/27 09:22:45;;;;;;;8.60;5.85;;;;;;;15.37;100.00;99718.38;5061840;28;20044;-73
2023/07/27 09:25:16;;;;;;;9.18;5.90;;;;;;;15.36;100.00;99715.81;5084520;28;20045;-74
2023/07/27 09:27:45;;;;;;;8.50;5.70;;;;;;;15.23;100.00;99709.72;5060622;28;20043;-75
2023/07/27 09:30:17;;;;;;;8.85;6.82;;;;;;;15.29;100.00;99715.44;5067917;28;20052;-73
2023/07/27 09:32:47;;;;;;;8.40;6.63;;;;;;;15.25;100.00;99711.31;5064370;28;20044;-72
2023/07/27 09:35:21;;;;;;;8.70;6.78;;;;;;;15.27;100.00;99709.34;5073870;28;20094;-74
2023/07/27 09:37:52;;;;;;;10.18;7.30;;;;;;;15.29;100.00;99694.09;5074934;28;20060;-74
2023/07/27 09:40:24;;;;;;;9.02;7.20;;;;;;;15.43;100.00;99706.34;5078336;28;20037;-74
2023/07/27 09:42:53;;;;;;;10.70;7.22;;;;;;;15.48;100.00;99690.00;5077651;28;20096;-73
2023/07/27 09:45:22;;;;;;;8.20;6.97;;;;;;;15.40;100.00;99675.44;5090016;28;20051;-74
2023/07/27 09:47:52;;;;;;;;;;;;;;;15.56;100.00;99688.47;5089390;28;20058;-74
2023/07/27 09:50:22;;;;;;;9.90;7.18;;;;;;;15.51;100.00;99671.94;5077921;28;20487;-73
2023/07/27 09:52:53;;;;;;;12.50;7.47;;;;;;;15.61;100.00;99675.59;5085887;28;20060;-74
2023/07/27 09:55:22;;;;;;;11.80;7.30;;;;;;;15.66;100.00;99665.41;5089561;28;20052;-75
2023/07/27 09:57:52;;;;;;;13.18;7.43;;;;;;;15.83;100.00;99673.91;5073621;28;20070;-74
2023/07/27 10:00:22;;;;;;;12.90;7.45;;;;;;;15.93;100.00;99678.38;5065158;28;20623;-74
2023/07/27 10:02:52;;;;;;;9.20;7.68;;;;;;;16.04;100.00;99678.38;5063993;28;20066;-74
2023/07/27 10:05:29;;;;;;;12.43;7.32;;;;;;;16.20;100.00;99680.66;5069604;28;20121;-74
2023/07/27 10:07:58;;;;;;;8.52;7.15;;;;;;;16.31;100.00;99677.94;5068928;28;20045;-74
2023/07/27 10:10:28;;;;;;;9.35;7.57;;;;;;;16.38;100.00;99678.25;5072576;28;20044;-74
2023/07/27 10:12:57;;;;;;;11.20;7.15;;;;;;;16.44;100.00;99677.78;5064999;28;20049;-74
2023/07/27 10:15:29;;;;;;;10.80;7.90;;;;;;;16.38;100.00;99681.78;5055500;28;20052;-74
2023/07/27 10:17:58;;;;;;;10.88;6.80;;;;;;;16.33;100.00;99677.81;5068615;28;20124;-75
2023/07/27 10:20:29;;;;;;;10.07;7.07;;;;;;;16.26;100.00;99663.25;5052119;28;20040;-73
2023/07/27 10:23:11;;;;;;;7.88;6.40;;;;;;;16.36;100.00;99667.72;5065444;28;20139;-74
2023/07/27 10:26:02;;;;;;;10.40;6.35;;;;;;;16.13;100.00;99671.41;5056529;28;20071;-74
2023/07/27 10:28:31;;;;;;;;;;;;;;;15.99;100.00;99682.38;5076948;28;20044;-74
2023/07/27 10:31:23;;;;;;;7.88;6.75;;;;;;;15.99;100.00;99677.03;5070566;28;20296;-74
2023/07/27 10:33:56;;;;;;;11.25;8.18;;;;;;;16.08;100.00;99660.25;5045860;28;20055;-75
2023/07/27 10:36:53;;;;;;;10.13;7.10;;;;;;;16.34;100.00;99672.34;5062850;28;20032;-74
2023/07/27 10:39:27;;;;;;;8.30;7.13;;;;;;;16.42;100.00;99664.53;5084527;28;20064;-74
2023/07/27 10:42:00;;;;;;;13.13;7.10;;;;;;;16.61;100.00;99661.19;5068555;28;20037;-74
2023/07/27 10:44:29;;;;;;;8.15;6.22;;;;;;;16.74;100.00;99659.22;5063420;28;20140;-75
2023/07/27 10:47:02;;;;;;;7.55;5.85;;;;;;;16.74;100.00;99653.88;5081020;28;20055;-75
2023/07/27 10:49:31;;;;;;;7.72;5.85;;;;;;;16.77;100.00;99655.44;5052192;28;20060;-76
2023/07/27 10:52:00;;;;;;;8.73;6.07;;;;;;;16.76;100.00;99656.41;5062905;28;20044;-75
2023/07/27 10:54:28;;;;;;;8.45;6.55;;;;;;;16.71;100.00;99646.09;5064398;28;20060;-76
2023/07/27 10:56:57;;;;;;;10.18;7.03;;;;;;;16.67;100.00;99641.16;5053924;28;20041;-76
2023/07/27 10:59:28;;;;;;;8.75;6.47;;;;;;;16.80;100.00;99652.50;5082134;28;20049;-76
2023/07/27 11:01:57;;;;;;;9.90;7.40;;;;;;;16.81;100.00;99647.03;5059486;28;20135;-76
2023/07/27 11:04:27;;;;;;;10.07;6.78;;;;;;;16.86;100.00;99651.97;5059942;28;20127;-75
2023/07/27 11:06:56;;;;;;;7.90;6.18;;;;;;;16.84;100.00;99646.75;5054894;28;20599;-75
2023/07/27 11:09:23;;;;;;;9.50;6.75;;;;;;;16.84;100.00;99659.31;5074330;28;20749;-75
2023/07/27 11:11:52;;;;;;;7.65;6.28;;;;;;;16.83;100.00;99650.44;5038299;28;20093;-75
2023/07/27 11:14:22;;;;;;;10.32;6.80;;;;;;;16.89;100.00;99656.22;5048899;28;20095;-75
2023/07/27 11:16:52;;;;;;;;;;;;;;;16.80;100.00;99647.16;5071171;28;20052;-74
2023/07/27 11:19:22;;;;;;;9.63;6.13;;;;;;;16.62;100.00;99635.31;5069920;28;20003;-74
2023/07/27 11:21:51;;;;;;;10.20;6.28;;;;;;;16.65;100.00;99638.59;5069034;28;20032;-74
2023/07/27 11:24:20;;;;;;;8.90;6.90;;;;;;;16.60;100.00;99648.78;5074224;28;20059;-75
2023/07/27 11:26:49;;;;;;;8.27;6.60;;;;;;;16.57;100.00;99634.84;5069820;28;20508;-74
2023/07/27 11:29:17;;;;;;;7.97;6.25;;;;;;;16.60;100.00;99631.91;5100264;28;20028;-75
2023/07/27 11:31:56;;;;;;;9.93;7.13;;;;;;;16.61;100.00;99628.25;5089580;28;20056;-75
2023/07/27 11:34:28;;;;;;;8.88;6.82;;;;;;;16.71;100.00;99626.53;5097822;28;20079;-76
2023/07/27 11:36:59;;;;;;;9.13;6.68;;;;;;;16.64;100.00;99617.34;5082256;28;20051;-76
2023/07/27 11:39:29;;;;;;;8.48;6.93;;;;;;;16.56;100.00;99611.75;5068443;28;20063;-75